Time;durP1;ratioP1;P1;durP2;ratioP2;P2;SDS_P1;SDS_P2;PMS_P1;PMS_P2;Temp;Humidity;BMP_temperature;BMP_pressure;BME280_temperature;BME280_humidity;BME280_pressure;Samples;Min_cycle;Max_cycle;Signal;HPM_P1;HPM_P2
2022/06/23 00:00:39;;;;;;;20.67;18.92;;;;;;;13.41;100.00;98808.31;2090712;28;20179;-77
2022/06/23 00:01:43;;;;;;;21.38;18.75;;;;;;;13.42;100.00;98807.22;2098115;28;20202;-77
2022/06/23 00:02:45;;;;;;;21.38;18.90;;;;;;;13.44;100.00;98812.25;2098374;28;20194;-78
2022/06/23 00:03:48;;;;;;;22.00;19.88;;;;;;;13.41;100.00;98811.00;2091250;28;20195;-78
2022/06/23 00:04:50;;;;;;;21.23;19.08;;;;;;;13.40;100.00;98804.06;2091025;28;20187;-77
2022/06/23 00:05:55;;;;;;;20.95;18.75;;;;;;;13.38;100.00;98802.81;2091166;28;20562;-78
2022/06/23 00:07:01;;;;;;;20.38;18.58;;;;;;;13.35;100.00;98806.91;2090932;28;20596;-77
2022/06/23 00:08:01;;;;;;;20.90;19.10;;;;;;;13.35;100.00;98806.91;2090309;28;20191;-78
2022/06/23 00:09:27;;;;;;;20.40;18.70;;;;;;;13.36;100.00;98805.81;2082087;28;20210;-78
2022/06/23 00:10:38;;;;;;;20.80;18.98;;;;;;;13.34;100.00;98805.34;2090941;28;20167;-78
2022/06/23 00:11:47;;;;;;;21.42;19.55;;;;;;;13.34;100.00;98808.03;2091117;28;20214;-78
2022/06/23 00:12:49;;;;;;;20.75;18.88;;;;;;;13.34;100.00;98804.56;2098195;28;20205;-78
2022/06/23 00:13:54;;;;;;;21.40;19.40;;;;;;;13.31;100.00;98800.66;2098647;28;20226;-77
2022/06/23 00:15:12;;;;;;;21.83;19.60;;;;;;;13.30;100.00;98793.72;2098599;28;20213;-77
2022/06/23 00:16:22;;;;;;;20.88;19.27;;;;;;;13.31;100.00;98803.31;2090333;28;20187;-78
2022/06/23 00:17:28;;;;;;;22.27;19.02;;;;;;;13.27;100.00;98802.38;2090709;28;20179;-78
2022/06/23 00:18:32;;;;;;;21.23;19.05;;;;;;;13.27;100.00;98800.47;2091097;28;20552;-78
2022/06/23 00:19:35;;;;;;;21.13;18.98;;;;;;;13.31;100.00;98800.66;2091075;28;20214;-78
2022/06/23 00:20:45;;;;;;;20.65;18.88;;;;;;;13.29;100.00;98802.84;2098806;28;20296;-78
2022/06/23 00:21:48;;;;;;;20.17;18.50;;;;;;;13.28;100.00;98798.59;2097386;28;20221;-78
2022/06/23 00:22:52;;;;;;;20.52;18.83;;;;;;;13.28;100.00;98795.91;2090909;28;20234;-78
2022/06/23 00:23:57;;;;;;;20.13;18.48;;;;;;;13.30;100.00;98799.06;2090215;28;20227;-78
2022/06/23 00:25:01;;;;;;;21.08;18.98;;;;;;;13.36;100.00;98792.41;2090779;28;20171;-78
2022/06/23 00:26:05;;;;;;;21.20;19.20;;;;;;;13.37;100.00;98796.66;2090887;28;20187;-78
2022/06/23 00:27:14;;;;;;;21.38;19.20;;;;;;;13.37;100.00;98799.34;2091152;28;20183;-78
2022/06/23 00:28:23;;;;;;;20.30;18.48;;;;;;;13.41;100.00;98800.28;2098564;28;20205;-78
2022/06/23 00:29:25;;;;;;;20.67;18.88;;;;;;;13.41;100.00;98800.28;2097882;28;20179;-78
2022/06/23 00:30:36;;;;;;;20.27;18.48;;;;;;;13.38;100.00;98794.75;2091003;28;20188;-78
2022/06/23 00:31:41;;;;;;;20.42;18.60;;;;;;;13.33;100.00;98785.03;2091089;28;20179;-78
2022/06/23 00:32:42;;;;;;;21.13;19.02;;;;;;;13.32;100.00;98793.38;2098790;28;20680;-77
2022/06/23 00:33:46;;;;;;;19.60;17.90;;;;;;;13.28;100.00;98795.91;2098605;28;20616;-78
2022/06/23 00:34:53;;;;;;;20.20;18.55;;;;;;;13.26;100.00;98803.47;2098789;28;20290;-78
2022/06/23 00:35:56;;;;;;;19.73;18.13;;;;;;;13.21;100.00;98796.41;2097432;28;20705;-77
2022/06/23 00:37:03;;;;;;;20.65;18.52;;;;;;;13.23;100.00;98798.78;2090221;28;20187;-78
2022/06/23 00:38:07;;;;;;;20.33;18.65;;;;;;;13.22;100.00;98792.63;2091270;28;20250;-78
2022/06/23 00:39:21;;;;;;;20.15;18.55;;;;;;;13.28;100.00;98783.28;2090007;28;20289;-78
2022/06/23 00:40:24;;;;;;;21.27;19.20;;;;;;;13.27;100.00;98788.97;2090489;28;20178;-77
2022/06/23 00:41:32;;;;;;;20.25;18.73;;;;;;;13.29;100.00;98792.13;2091115;28;20183;-78
2022/06/23 00:42:37;;;;;;;21.00;19.15;;;;;;;13.26;100.00;98787.41;2098351;28;20251;-78
2022/06/23 00:43:44;;;;;;;21.55;19.58;;;;;;;13.27;100.00;98795.13;2098065;28;20202;-78
2022/06/23 00:44:49;;;;;;;21.63;19.63;;;;;;;13.26;100.00;98798.91;2090413;28;20182;-78
2022/06/23 00:45:54;;;;;;;21.25;19.52;;;;;;;13.30;100.00;98804.44;2091161;28;20187;-78
2022/06/23 00:46:59;;;;;;;21.40;19.42;;;;;;;13.26;100.00;98800.81;2098686;28;20234;-78
2022/06/23 00:48:08;;;;;;;21.20;19.40;;;;;;;13.25;100.00;98797.34;2098927;28;20190;-78
2022/06/23 00:49:26;;;;;;;20.92;19.20;;;;;;;13.22;100.00;98800.66;2097467;28;20627;-77
2022/06/23 00:50:29;;;;;;;20.40;18.67;;;;;;;13.20;100.00;98794.03;2090959;28;20609;-78
2022/06/23 00:51:38;;;;;;;20.60;18.80;;;;;;;13.17;100.00;98792.75;2090363;28;20321;-78
2022/06/23 00:52:43;;;;;;;21.25;19.35;;;;;;;13.14;100.00;98789.94;2090791;28;20171;-78
2022/06/23 00:53:48;;;;;;;21.52;19.52;;;;;;;13.10;100.00;98795.13;2099249;28;20589;-78
2022/06/23 00:54:52;;;;;;;20.50;18.75;;;;;;;13.07;100.00;98797.66;2098045;28;20238;-78
2022/06/23 00:55:57;;;;;;;21.70;19.67;;;;;;;13.06;100.00;98804.13;2090312;28;20187;-77
2022/06/23 00:57:03;;;;;;;21.00;19.25;;;;;;;13.06;100.00;98793.44;2090713;28;20689;-78
2022/06/23 00:58:16;;;;;;;20.95;19.17;;;;;;;13.02;100.00;98799.41;2090767;28;20176;-78
2022/06/23 00:59:23;;;;;;;23.23;19.33;;;;;;;13.00;100.00;98790.91;2098651;28;20227;-78
2022/06/23 01:00:31;;;;;;;20.92;19.13;;;;;;;12.98;100.00;98793.13;2090126;28;20286;-78
2022/06/23 01:01:44;;;;;;;20.27;18.63;;;;;;;12.90;100.00;98787.78;2090205;28;20186;-78
2022/06/23 01:02:47;;;;;;;21.23;19.42;;;;;;;12.88;100.00;98788.09;2090845;28;20180;-78
2022/06/23 01:03:56;;;;;;;21.10;19.20;;;;;;;12.85;100.00;98793.28;2090685;28;20704;-78
2022/06/23 01:05:00;;;;;;;21.25;19.42;;;;;;;12.80;100.00;98791.56;2090767;28;20519;-78
2022/06/23 01:06:10;;;;;;;20.67;18.90;;;;;;;12.78;100.00;98793.78;2089762;28;20684;-78
2022/06/23 01:07:31;;;;;;;24.20;19.95;;;;;;;12.74;100.00;98793.63;2090985;28;20665;-78
2022/06/23 01:08:36;;;;;;;21.45;19.58;;;;;;;12.72;100.00;98785.13;2095806;28;20618;-78
2022/06/23 01:09:41;;;;;;;21.38;19.13;;;;;;;12.73;100.00;98789.38;2090913;28;20544;-78
2022/06/23 01:10:47;;;;;;;21.27;19.27;;;;;;;12.82;100.00;98788.56;2090582;28;20193;-78
2022/06/23 01:11:52;;;;;;;20.40;18.70;;;;;;;12.86;100.00;98801.03;2098725;28;20309;-78
2022/06/23 01:12:56;;;;;;;20.65;19.00;;;;;;;12.88;100.00;98798.81;2097773;28;20181;-78
2022/06/23 01:14:09;;;;;;;21.40;19.50;;;;;;;12.88;100.00;98801.50;2090861;28;20210;-78
2022/06/23 01:15:22;;;;;;;21.00;19.15;;;;;;;12.86;100.00;98801.03;2090729;28;20182;-78
2022/06/23 01:16:26;;;;;;;21.10;19.30;;;;;;;12.85;100.00;98799.44;2090857;28;20171;-78
2022/06/23 01:17:31;;;;;;;20.67;18.90;;;;;;;12.84;100.00;98795.19;2090806;28;20720;-78
2022/06/23 01:18:35;;;;;;;20.80;19.20;;;;;;;12.84;100.00;98803.22;2098306;28;20301;-78
2022/06/23 01:20:17;;;;;;;20.63;19.00;;;;;;;12.82;100.00;98800.06;2090094;28;20202;-78
2022/06/23 01:21:20;;;;;;;21.00;19.00;;;;;;;12.83;100.00;98798.19;2090015;28;20218;-78
2022/06/23 01:22:37;;;;;;;21.27;19.48;;;;;;;12.82;100.00;98801.97;2090647;28;20171;-78
2022/06/23 01:23:55;;;;;;;20.05;18.52;;;;;;;12.77;100.00;98802.94;2098319;28;20201;-78
2022/06/23 01:25:03;;;;;;;20.92;18.88;;;;;;;12.70;100.00;98800.72;2096066;28;20181;-78
2022/06/23 01:26:18;;;;;;;20.90;19.02;;;;;;;12.65;100.00;98794.72;2098243;28;20182;-77
2022/06/23 01:27:27;;;;;;;20.30;18.60;;;;;;;12.60;100.00;98797.56;2096424;28;20599;-77
2022/06/23 01:28:32;;;;;;;20.58;19.08;;;;;;;12.55;100.00;98805.75;2090161;28;20266;-77
2022/06/23 01:29:39;;;;;;;20.67;18.85;;;;;;;12.50;100.00;98798.66;2097771;28;20677;-78
2022/06/23 01:30:46;;;;;;;22.02;19.95;;;;;;;12.45;100.00;98807.63;2097602;28;20175;-77
2022/06/23 01:31:51;;;;;;;22.15;20.05;;;;;;;12.44;100.00;98806.06;2090645;28;20203;-77
2022/06/23 01:32:59;;;;;;;21.45;19.60;;;;;;;12.38;100.00;98801.97;2090436;28;20625;-78
2022/06/23 01:34:07;;;;;;;21.40;19.45;;;;;;;12.32;100.00;98803.22;2090577;28;20178;-78
2022/06/23 01:35:14;;;;;;;21.73;19.83;;;;;;;12.25;100.00;98802.91;2090704;28;20218;-78
2022/06/23 01:36:20;;;;;;;21.23;19.52;;;;;;;12.22;100.00;98802.72;2090182;28;20222;-78
2022/06/23 01:37:26;;;;;;;22.02;20.23;;;;;;;12.17;100.00;98806.34;2090345;28;20203;-78
2022/06/23 01:38:33;;;;;;;21.70;19.90;;;;;;;12.14;100.00;98802.41;2090510;28;20238;-78
2022/06/23 01:39:36;;;;;;;21.38;19.67;;;;;;;12.11;100.00;98811.06;2090721;28;20263;-78
2022/06/23 01:40:43;;;;;;;21.30;19.15;;;;;;;12.09;100.00;98810.59;2090818;28;20252;-78
2022/06/23 01:41:48;;;;;;;22.05;19.98;;;;;;;12.05;100.00;98806.16;2089934;28;20195;-78
2022/06/23 01:42:55;;;;;;;22.02;19.95;;;;;;;12.02;100.00;98810.25;2082156;28;20657;-78
2022/06/23 01:44:07;;;;;;;22.40;20.17;;;;;;;11.98;100.00;98808.50;2081941;28;20211;-78
2022/06/23 01:45:12;;;;;;;21.80;20.00;;;;;;;11.97;100.00;98810.38;2089927;28;20171;-78
2022/06/23 01:46:15;;;;;;;21.27;19.52;;;;;;;11.94;100.00;98812.91;2090862;28;20269;-78
2022/06/23 01:47:23;;;;;;;21.92;19.92;;;;;;;11.92;100.00;98815.09;2097971;28;20202;-78
2022/06/23 01:49:56;;;;;;;21.77;19.98;;;;;;;11.93;100.00;98814.78;2090692;28;20179;-78
2022/06/23 01:51:06;;;;;;;21.52;19.83;;;;;;;11.93;100.00;98814.78;2097543;28;20186;-77
2022/06/23 01:52:10;;;;;;;22.70;20.27;;;;;;;11.92;100.00;98820.44;2097833;28;20593;-78
2022/06/23 01:53:24;;;;;;;22.02;20.13;;;;;;;11.89;100.00;98827.97;2090370;28;20244;-78
2022/06/23 01:54:29;;;;;;;23.42;20.50;;;;;;;11.85;100.00;98829.69;2091527;28;20190;-78
2022/06/23 01:55:43;;;;;;;22.13;20.20;;;;;;;11.84;100.00;98841.50;2097564;28;20199;-78
2022/06/23 01:56:56;;;;;;;22.55;20.15;;;;;;;11.80;100.00;98837.84;2096948;28;20210;-78
2022/06/23 01:58:02;;;;;;;21.55;19.77;;;;;;;11.79;100.00;98838.91;2090629;28;20191;-77
2022/06/23 01:59:23;;;;;;;21.83;19.83;;;;;;;11.75;100.00;98840.66;2090284;28;20239;-77
2022/06/23 02:00:24;;;;;;;21.20;19.30;;;;;;;11.71;100.00;98834.31;2097961;28;20205;-77
2022/06/23 02:01:35;;;;;;;20.67;19.00;;;;;;;11.72;100.00;98837.78;2097929;28;20189;-78
2022/06/23 02:02:58;;;;;;;21.13;19.30;;;;;;;11.71;100.00;98842.34;2090594;28;20652;-77
2022/06/23 02:04:03;;;;;;;22.00;20.02;;;;;;;11.71;100.00;98839.66;2090671;28;20198;-78
2022/06/23 02:05:13;;;;;;;21.63;19.63;;;;;;;11.71;100.00;98838.88;2090346;28;20218;-78
2022/06/23 02:06:20;;;;;;;21.60;19.67;;;;;;;11.73;100.00;98844.75;2090202;28;20685;-78
2022/06/23 02:07:26;;;;;;;21.98;19.77;;;;;;;11.71;100.00;98842.34;2089622;28;20179;-77
2022/06/23 02:08:34;;;;;;;21.50;19.80;;;;;;;11.69;100.00;98846.44;2089882;28;20191;-77
2022/06/23 02:09:42;;;;;;;21.63;19.90;;;;;;;11.68;100.00;98842.97;2097984;28;20198;-78
2022/06/23 02:10:50;;;;;;;20.88;19.23;;;;;;;11.68;100.00;98848.31;2097144;28;20183;-78
2022/06/23 02:11:53;;;;;;;21.45;19.75;;;;;;;11.70;100.00;98851.47;2097929;28;20187;-78
2022/06/23 02:12:57;;;;;;;22.40;20.00;;;;;;;11.73;100.00;98861.56;2097824;28;20581;-78
2022/06/23 02:14:05;;;;;;;21.83;19.73;;;;;;;11.74;100.00;98859.66;2090524;28;20183;-78
2022/06/23 02:15:11;;;;;;;21.42;19.30;;;;;;;11.74;100.00;98863.13;2090505;28;20533;-78
2022/06/23 02:16:21;;;;;;;22.77;20.45;;;;;;;11.73;100.00;98856.22;2090478;28;20186;-77
2022/06/23 02:17:33;;;;;;;22.15;19.95;;;;;;;11.76;100.00;98860.16;2098025;28;20206;-78
2022/06/23 02:18:38;;;;;;;25.50;20.35;;;;;;;11.75;100.00;98859.34;2097947;28;20221;-77
2022/06/23 02:19:41;;;;;;;21.77;19.88;;;;;;;11.75;100.00;98858.56;2097513;28;20248;-77
2022/06/23 02:20:50;;;;;;;22.27;20.13;;;;;;;11.76;100.00;98860.94;2090613;28;20715;-78
2022/06/23 02:21:54;;;;;;;21.60;19.60;;;;;;;11.77;100.00;98862.50;2090088;28;20234;-78
2022/06/23 02:23:07;;;;;;;20.77;19.00;;;;;;;11.77;100.00;98859.03;2098052;28;20255;-78
2022/06/23 02:24:16;;;;;;;21.02;19.02;;;;;;;11.74;100.00;98867.69;2098757;28;20206;-77
2022/06/23 02:25:21;;;;;;;20.70;19.17;;;;;;;11.71;100.00;98868.28;2091680;28;20203;-77
2022/06/23 02:26:27;;;;;;;20.95;19.25;;;;;;;11.69;100.00;98860.59;2091335;28;20183;-77
2022/06/23 02:27:31;;;;;;;20.73;19.02;;;;;;;11.65;100.00;98859.63;2091975;28;20183;-77
2022/06/23 02:28:36;;;;;;;21.00;19.15;;;;;;;11.60;100.00;98859.75;2099874;28;20765;-78
2022/06/23 02:29:43;;;;;;;21.90;19.90;;;;;;;11.56;100.00;98862.25;2091094;28;20688;-78
2022/06/23 02:30:48;;;;;;;21.20;19.40;;;;;;;11.51;100.00;98859.72;2083868;28;20717;-77
2022/06/23 02:31:53;;;;;;;22.23;20.02;;;;;;;11.50;100.00;98862.69;2091263;28;20274;-77
2022/06/23 02:33:04;;;;;;;21.80;19.85;;;;;;;11.47;100.00;98866.00;2099655;28;20281;-78
2022/06/23 02:34:12;;;;;;;22.55;20.45;;;;;;;11.45;100.00;98863.59;2098266;28;20182;-78
2022/06/23 02:35:18;;;;;;;21.17;19.58;;;;;;;11.42;100.00;98866.09;2099416;28;20182;-78
2022/06/23 02:36:33;;;;;;;22.20;19.85;;;;;;;11.41;100.00;98864.53;2098501;28;20278;-77
2022/06/23 02:38:03;;;;;;;20.60;18.95;;;;;;;11.39;100.00;98867.50;2099384;28;20633;-78
2022/06/23 02:39:05;;;;;;;20.38;18.85;;;;;;;11.37;100.00;98874.22;2070936;28;20291;-78
2022/06/23 02:40:16;;;;;;;20.50;18.90;;;;;;;11.33;100.00;98874.84;2082809;28;20199;-78
2022/06/23 02:41:19;;;;;;;20.38;18.88;;;;;;;11.31;100.00;98879.72;2099552;28;20175;-77
2022/06/23 02:42:24;;;;;;;21.38;19.55;;;;;;;11.29;100.00;98876.56;2091747;28;20215;-77
2022/06/23 02:43:31;;;;;;;20.92;19.20;;;;;;;11.28;100.00;98882.19;2091746;28;20183;-77
2022/06/23 02:44:52;;;;;;;20.90;19.20;;;;;;;11.25;100.00;98875.59;2092081;28;20261;-78
2022/06/23 02:46:32;;;;;;;21.15;19.42;;;;;;;11.22;100.00;98873.53;2091930;28;20576;-77
2022/06/23 02:47:47;;;;;;;21.48;19.52;;;;;;;11.19;100.00;98873.34;2085383;28;20293;-77
2022/06/23 02:48:59;;;;;;;22.05;19.95;;;;;;;11.16;100.00;98872.06;2099802;28;20188;-78
2022/06/23 02:50:27;;;;;;;21.63;19.77;;;;;;;11.20;100.00;98878.38;2098029;28;20206;-77
2022/06/23 02:51:44;;;;;;;21.55;19.55;;;;;;;11.20;100.00;98880.25;2086692;28;20701;-77
2022/06/23 02:53:01;;;;;;;20.67;18.98;;;;;;;11.20;100.00;98877.59;2091785;28;20199;-78
2022/06/23 02:54:16;;;;;;;22.38;19.50;;;;;;;11.22;100.00;98884.22;2091963;28;20686;-77
2022/06/23 02:55:30;;;;;;;21.90;20.00;;;;;;;11.22;100.00;98878.88;2092079;28;20588;-77
2022/06/23 02:56:49;;;;;;;21.50;19.67;;;;;;;11.24;100.00;98892.72;2091598;28;20219;-78
2022/06/23 02:57:53;;;;;;;20.08;18.50;;;;;;;11.21;100.00;98887.97;2091636;28;20175;-78
2022/06/23 02:59:02;;;;;;;21.60;19.58;;;;;;;11.20;100.00;98886.38;2091873;28;20176;-78
2022/06/23 03:00:08;;;;;;;21.33;19.30;;;;;;;11.19;100.00;98884.81;2092600;28;20525;-78
2022/06/23 03:01:13;;;;;;;21.10;19.20;;;;;;;11.20;100.00;98893.59;2091750;28;20585;-78
2022/06/23 03:02:18;;;;;;;21.05;19.10;;;;;;;11.20;100.00;98891.72;2092335;28;20324;-77
2022/06/23 03:03:26;;;;;;;21.83;19.92;;;;;;;11.21;100.00;98897.88;2099145;28;20233;-78
2022/06/23 03:04:30;;;;;;;20.67;19.15;;;;;;;11.23;100.00;98893.81;2098680;28;20628;-77
2022/06/23 03:05:40;;;;;;;21.77;20.05;;;;;;;11.25;100.00;98899.63;2091806;28;20214;-78
2022/06/23 03:06:45;;;;;;;21.58;19.67;;;;;;;11.28;100.00;98895.53;2091258;28;20223;-78
2022/06/23 03:07:53;;;;;;;21.33;19.15;;;;;;;11.31;100.00;98903.75;2099640;28;20175;-77
2022/06/23 03:08:59;;;;;;;20.95;19.08;;;;;;;11.35;100.00;98903.13;2090829;28;20183;-77
2022/06/23 03:10:05;;;;;;;21.38;19.38;;;;;;;11.37;100.00;98901.72;2091135;28;20213;-77
2022/06/23 03:11:14;;;;;;;20.60;18.92;;;;;;;11.39;100.00;98904.91;2099071;28;20535;-78
2022/06/23 03:12:37;;;;;;;21.40;19.50;;;;;;;11.43;100.00;98899.72;2090925;28;20237;-77
2022/06/23 03:13:44;;;;;;;21.15;19.17;;;;;;;11.43;100.00;98902.41;2091292;28;20183;-78
2022/06/23 03:14:52;;;;;;;21.60;19.63;;;;;;;11.42;100.00;98900.84;2090825;28;20193;-77
2022/06/23 03:15:55;;;;;;;21.50;19.58;;;;;;;11.47;100.00;98903.38;2092065;28;20680;-78
2022/06/23 03:17:03;;;;;;;21.02;19.17;;;;;;;11.49;100.00;98909.22;2098793;28;20285;-78
2022/06/23 03:18:06;;;;;;;20.80;18.92;;;;;;;11.51;100.00;98909.69;2099597;28;20652;-77
2022/06/23 03:19:14;;;;;;;20.10;18.30;;;;;;;11.54;100.00;98911.75;2098731;28;20354;-77
2022/06/23 03:20:25;;;;;;;23.50;19.50;;;;;;;11.54;100.00;98909.06;2091836;28;20224;-77
2022/06/23 03:21:30;;;;;;;21.30;19.40;;;;;;;11.56;100.00;98915.69;2091057;28;20234;-78
2022/06/23 03:22:34;;;;;;;21.33;19.30;;;;;;;11.58;100.00;98912.72;2091580;28;20218;-77
2022/06/23 03:23:41;;;;;;;21.67;19.70;;;;;;;11.60;100.00;98908.63;2091961;28;20194;-77
2022/06/23 03:24:49;;;;;;;22.13;19.92;;;;;;;11.60;100.00;98913.19;2099150;28;20194;-77
2022/06/23 03:25:58;;;;;;;22.63;20.50;;;;;;;11.64;100.00;98914.19;2099542;28;20185;-77
2022/06/23 03:27:01;;;;;;;23.40;21.13;;;;;;;11.67;100.00;98916.22;2091499;28;20171;-77
2022/06/23 03:28:06;;;;;;;22.63;20.50;;;;;;;11.72;100.00;98907.28;2099239;28;20191;-78
2022/06/23 03:29:11;;;;;;;22.05;20.10;;;;;;;11.78;100.00;98922.88;2099050;28;20711;-77
2022/06/23 03:30:18;;;;;;;21.60;19.83;;;;;;;11.82;100.00;98920.44;2090727;28;20179;-77
2022/06/23 03:31:23;;;;;;;22.83;20.73;;;;;;;11.83;100.00;98914.78;2091098;28;20679;-77
2022/06/23 03:32:30;;;;;;;21.75;19.95;;;;;;;11.89;100.00;98921.53;2091520;28;20535;-78
2022/06/23 03:33:36;;;;;;;23.88;20.55;;;;;;;11.93;100.00;98918.28;2091500;28;20192;-78
2022/06/23 03:34:46;;;;;;;21.65;19.58;;;;;;;11.96;100.00;98920.31;2091611;28;20339;-77
2022/06/23 03:35:52;;;;;;;23.05;19.98;;;;;;;12.00;100.00;98918.63;2091235;28;20534;-77
2022/06/23 03:36:58;;;;;;;22.23;20.33;;;;;;;12.06;100.00;98920.03;2091356;28;20665;-77
2022/06/23 03:38:03;;;;;;;21.83;19.85;;;;;;;12.08;100.00;98926.69;2091127;28;20223;-77
2022/06/23 03:42:09;;;;;;;21.73;19.73;;;;;;;12.20;100.00;98928.75;2099186;28;20680;-78
2022/06/23 03:43:15;;;;;;;21.70;19.55;;;;;;;12.22;100.00;98925.78;2097788;28;20182;-77
2022/06/23 03:44:21;;;;;;;21.48;19.50;;;;;;;12.22;100.00;98920.41;2090905;28;20245;-77
2022/06/23 03:45:27;;;;;;;22.60;20.27;;;;;;;12.23;100.00;98928.13;2091485;28;20184;-77
2022/06/23 03:46:35;;;;;;;22.45;20.17;;;;;;;12.25;100.00;98931.31;2091196;28;20258;-77
2022/06/23 03:47:44;;;;;;;23.20;20.80;;;;;;;12.25;100.00;98930.50;2091219;28;20172;-77
2022/06/23 03:48:50;;;;;;;21.90;19.95;;;;;;;12.26;100.00;98927.53;2099155;28;20225;-77
2022/06/23 03:49:56;;;;;;;21.20;19.33;;;;;;;12.27;100.00;98921.06;2090882;28;20699;-77
2022/06/23 03:51:00;;;;;;;23.13;21.15;;;;;;;12.32;100.00;98928.94;2090044;28;20595;-77
2022/06/23 03:52:04;;;;;;;23.10;20.85;;;;;;;12.33;100.00;98925.16;2091274;28;20202;-78
2022/06/23 03:53:13;;;;;;;22.27;20.48;;;;;;;12.34;100.00;98928.66;2098749;28;20221;-78
2022/06/23 03:54:18;;;;;;;23.60;20.08;;;;;;;12.36;100.00;98921.88;2098223;28;20196;-77
2022/06/23 03:55:25;;;;;;;22.63;20.38;;;;;;;12.38;100.00;98930.38;2091389;28;20191;-78
2022/06/23 03:56:27;;;;;;;22.20;20.10;;;;;;;12.38;100.00;98918.91;2091062;28;20178;-78
2022/06/23 03:57:32;;;;;;;21.77;19.98;;;;;;;12.40;100.00;98922.03;2091131;28;20214;-77
2022/06/23 03:58:39;;;;;;;24.13;20.83;;;;;;;12.45;100.00;98927.25;2098794;28;20331;-77
2022/06/23 03:59:58;;;;;;;24.10;21.80;;;;;;;12.47;100.00;98927.72;2090424;28;20293;-78
2022/06/23 04:01:03;;;;;;;23.85;21.35;;;;;;;12.49;100.00;98930.88;2090810;28;20637;-78
2022/06/23 04:02:13;;;;;;;25.95;22.13;;;;;;;12.52;100.00;98932.16;2098993;28;20213;-78
2022/06/23 04:03:24;;;;;;;23.15;20.90;;;;;;;12.55;100.00;98928.84;2098889;28;20612;-78
2022/06/23 04:04:42;;;;;;;22.63;20.42;;;;;;;12.56;100.00;98939.25;2090548;28;20584;-78
2022/06/23 04:06:17;;;;;;;24.23;21.70;;;;;;;12.57;100.00;98934.69;2090992;28;20262;-78
2022/06/23 04:07:34;;;;;;;22.77;20.40;;;;;;;12.60;100.00;98936.75;2090938;28;20222;-78
2022/06/23 04:08:43;;;;;;;22.90;20.55;;;;;;;12.61;100.00;98931.09;2091139;28;20179;-78
2022/06/23 04:09:45;;;;;;;25.58;20.50;;;;;;;12.64;100.00;98932.34;2098763;28;20723;-77
2022/06/23 04:10:48;;;;;;;22.15;20.00;;;;;;;12.67;100.00;98942.41;2098805;28;20277;-78
2022/06/23 04:11:56;;;;;;;25.48;22.77;;;;;;;12.70;100.00;98947.16;2091069;28;20653;-77
2022/06/23 04:13:01;;;;;;;24.35;21.98;;;;;;;12.73;100.00;98946.53;2091009;28;20562;-78
2022/06/23 04:14:05;;;;;;;29.52;21.90;;;;;;;12.77;100.00;98944.00;2090524;28;20275;-78
2022/06/23 04:15:09;;;;;;;25.30;21.58;;;;;;;12.79;100.00;98947.97;2091096;28;20203;-79
2022/06/23 04:16:11;;;;;;;24.85;22.13;;;;;;;12.82;100.00;98938.50;2091458;28;20194;-79
2022/06/23 04:17:20;;;;;;;25.05;22.40;;;;;;;12.84;100.00;98939.75;2090300;28;20187;-79
2022/06/23 04:18:22;;;;;;;25.85;21.33;;;;;;;12.90;100.00;98946.53;2091828;28;20328;-79
2022/06/23 04:19:27;;;;;;;22.75;20.65;;;;;;;12.93;100.00;98947.81;2098611;28;20630;-79
2022/06/23 04:20:32;;;;;;;26.73;21.38;;;;;;;12.96;100.00;98950.66;2090932;28;20191;-79
2022/06/23 04:21:34;;;;;;;25.58;21.83;;;;;;;12.97;100.00;98946.88;2098501;28;20230;-79
2022/06/23 04:22:39;;;;;;;24.08;21.55;;;;;;;13.01;100.00;98942.44;2098584;28;20273;-79
2022/06/23 04:23:45;;;;;;;23.63;21.20;;;;;;;13.06;100.00;98954.91;2091481;28;20175;-79
2022/06/23 04:24:47;;;;;;;23.25;21.08;;;;;;;13.08;100.00;98946.56;2090901;28;20182;-79
2022/06/23 04:25:51;;;;;;;24.92;21.63;;;;;;;13.09;100.00;98954.28;2098443;28;20205;-79
2022/06/23 04:26:56;;;;;;;24.95;22.08;;;;;;;13.14;100.00;98953.34;2090702;28;20203;-79
2022/06/23 04:28:00;;;;;;;29.63;21.35;;;;;;;13.18;100.00;98951.59;2082744;28;20229;-79
2022/06/23 04:29:09;;;;;;;24.30;21.25;;;;;;;13.20;100.00;98949.41;2090638;28;20693;-79
2022/06/23 04:30:20;;;;;;;24.50;20.70;;;;;;;13.23;100.00;98962.19;2090569;28;20191;-79
2022/06/23 04:31:26;;;;;;;23.42;21.08;;;;;;;13.26;100.00;98958.88;2091628;28;20195;-79
2022/06/23 04:32:30;;;;;;;23.95;21.48;;;;;;;13.29;100.00;98959.06;2098170;28;20173;-79
2022/06/23 04:33:36;;;;;;;23.70;21.35;;;;;;;13.31;100.00;98958.72;2090824;28;20191;-79
2022/06/23 04:34:49;;;;;;;24.65;21.40;;;;;;;13.32;100.00;98954.94;2091011;28;20175;-79
2022/06/23 04:35:52;;;;;;;24.05;21.52;;;;;;;13.37;100.00;98957.44;2090985;28;20187;-79
2022/06/23 04:36:53;;;;;;;23.20;20.75;;;;;;;13.42;100.00;98956.50;2090660;28;20245;-79
2022/06/23 04:38:01;;;;;;;24.77;20.75;;;;;;;13.48;100.00;98961.41;2090703;28;20272;-79
2022/06/23 04:39:06;;;;;;;23.42;20.92;;;;;;;13.51;100.00;98963.44;2091129;28;20168;-79
2022/06/23 04:40:16;;;;;;;22.80;20.48;;;;;;;13.55;100.00;98967.06;2097963;28;20256;-79
2022/06/23 04:41:22;;;;;;;23.02;20.60;;;;;;;13.60;100.00;98963.41;2096727;28;20194;-79
2022/06/23 04:42:25;;;;;;;22.60;20.38;;;;;;;13.63;100.00;98972.72;2098600;28;20205;-79
2022/06/23 04:43:35;;;;;;;26.33;21.48;;;;;;;13.64;100.00;98967.06;2098170;28;20645;-79
2022/06/23 04:44:45;;;;;;;22.85;20.30;;;;;;;13.67;100.00;98969.09;2090962;28;20598;-79
2022/06/23 04:45:55;;;;;;;23.20;20.75;;;;;;;13.73;100.00;98967.81;2090875;28;20175;-79
2022/06/23 04:46:59;;;;;;;21.02;19.10;;;;;;;13.73;100.00;98961.69;2090260;28;20183;-79
2022/06/23 04:48:04;;;;;;;21.75;19.73;;;;;;;13.78;100.00;98969.53;2098230;28;20664;-79
2022/06/23 04:49:16;;;;;;;22.67;20.52;;;;;;;13.83;100.00;98970.16;2097929;28;20178;-79
2022/06/23 04:50:32;;;;;;;22.08;19.98;;;;;;;13.89;100.00;98967.28;2091056;28;20661;-79
2022/06/23 04:51:36;;;;;;;24.23;21.05;;;;;;;13.92;100.00;98972.81;2090324;28;20253;-79
2022/06/23 04:52:43;;;;;;;26.40;21.63;;;;;;;13.95;100.00;98969.50;2090773;28;20597;-79
2022/06/23 04:53:52;;;;;;;25.38;21.17;;;;;;;14.00;100.00;98965.88;2090718;28;20201;-79
2022/06/23 04:55:04;;;;;;;23.00;20.70;;;;;;;14.04;100.00;98972.16;2090853;28;20633;-79
2022/06/23 04:56:12;;;;;;;23.17;20.98;;;;;;;14.05;100.00;98969.16;2090753;28;20178;-79
2022/06/23 04:57:16;;;;;;;23.88;21.08;;;;;;;14.10;100.00;98970.88;2090770;28;20179;-79
2022/06/23 04:58:22;;;;;;;24.63;20.58;;;;;;;14.12;100.00;98969.44;2090975;28;20664;-79
2022/06/23 04:59:38;;;;;;;22.55;20.20;;;;;;;14.17;100.00;98971.19;2090696;28;20171;-79
2022/06/23 05:00:40;;;;;;;23.05;20.58;;;;;;;14.18;100.00;98972.75;2091020;28;20190;-79
2022/06/23 05:01:45;;;;;;;19.98;18.17;;;;;;;14.25;100.00;98983.00;2090498;28;20199;-79
2022/06/23 05:02:50;;;;;;;19.02;17.52;;;;;;;14.28;100.00;98971.59;2098248;28;20589;-79
2022/06/23 05:03:55;;;;;;;19.88;18.05;;;;;;;14.32;100.00;98972.50;2097900;28;20265;-79
2022/06/23 05:05:03;;;;;;;20.40;18.50;;;;;;;14.36;100.00;98976.16;2090632;28;20695;-79
2022/06/23 05:06:10;;;;;;;21.05;19.13;;;;;;;14.38;100.00;98977.38;2090147;28;20187;-79
2022/06/23 05:07:19;;;;;;;21.75;19.13;;;;;;;14.42;100.00;98980.19;2090748;28;20262;-79
2022/06/23 05:08:25;;;;;;;21.95;19.70;;;;;;;14.48;100.00;98978.16;2090840;28;20234;-79
2022/06/23 05:09:33;;;;;;;20.38;18.67;;;;;;;14.51;100.00;98974.81;2098278;28;20659;-79
2022/06/23 05:10:37;;;;;;;20.35;18.10;;;;;;;14.57;100.00;98978.91;2089999;28;20236;-79
2022/06/23 05:11:44;;;;;;;20.87;18.80;;;;;;;14.59;100.00;98980.16;2090118;28;20270;-78
2022/06/23 05:12:49;;;;;;;20.40;18.50;;;;;;;14.63;100.00;98974.94;2090843;28;20419;-79